CYUT

Repulse Bay Airport

Repulse Bay, Canada
METAR CYUT 191800Z 24007KT 190V270 25SM FEW020 BKN025 M03/M09 A2985 RMK CF2SC4 SLP111
Observed Flight Rules
Sep-19 @ 18:00 UTC (an hour ago) Marginal Visual Flight Rules
Wind Visibility Clouds
240° at 7 knots 25 miles
  • Few at 2,000' AGL
  • Broken at 2,500' AGL
Temperatures Readings
Current -3°C / 27°F
Dewpoint -9°C / 16°F
Humidity 64%
Altimeter 29.85" Hg
Pressure 1011.1 hPa
Elevation 24
METAR CYUT 191800Z 24007KT 190V270 25SM FEW020 BKN025 M03/M09 A2985 RMK CF2SC4 SLP111
Observed Flight Rules
Sep-19 @ 18:00 UTC
(an hour ago)
MVFR
Wind Visibility
240° at 7 knots 25 miles
Clouds
  • Few at 2,000' AGL
  • Broken at 2,500' AGL
Temperature Dewpoint
-3°C / 27°F -9°C / 16°F
Humidity Altimeter Pressure
64% 29.85" Hg 1011.1 hPa